Time;durP1;ratioP1;P1;durP2;ratioP2;P2;SDS_P1;SDS_P2;PMS_P1;PMS_P2;Temp;Humidity;BMP_temperature;BMP_pressure;BME280_temperature;BME280_humidity;BME280_pressure;Samples;Min_cycle;Max_cycle;Signal;HPM_P1;HPM_P2
2022/03/15 00:01:19;;;;;;;24.80;15.13;;;;;;;;;;10343588;28;20255;-80
2022/03/15 00:06:20;;;;;;;21.45;13.93;;;;;;;;;;10343651;28;20220;-80
2022/03/15 00:11:21;;;;;;;27.05;15.43;;;;;;;;;;10338675;28;20211;-80
2022/03/15 00:16:22;;;;;;;25.67;14.98;;;;;;;;;;10336795;28;20204;-80
2022/03/15 00:21:25;;;;;;;24.27;14.77;;;;;;;;;;10341506;28;20568;-80
2022/03/15 00:26:28;;;;;;;32.88;17.65;;;;;;;;;;10345640;28;20364;-80
2022/03/15 00:31:29;;;;;;;30.27;15.93;;;;;;;;;;10357532;28;20219;-79
2022/03/15 00:36:30;;;;;;;35.50;17.85;;;;;;;;;;10370988;28;20213;-79
2022/03/15 00:41:32;;;;;;;30.38;17.38;;;;;;;;;;10372552;28;20220;-80
2022/03/15 00:46:33;;;;;;;30.27;17.00;;;;;;;;;;10346265;28;20204;-79
2022/03/15 00:51:36;;;;;;;33.75;16.52;;;;;;;;;;10367755;28;20261;-80
2022/03/15 00:56:37;;;;;;;26.63;14.70;;;;;;;;;;10339906;28;20212;-80
2022/03/15 01:01:40;;;;;;;29.58;15.05;;;;;;;;;;10347186;28;20216;-80
2022/03/15 01:06:43;;;;;;;29.00;15.65;;;;;;;;;;10348803;28;20696;-80
2022/03/15 01:11:44;;;;;;;26.83;13.90;;;;;;;;;;10349695;28;20200;-80
2022/03/15 01:16:45;;;;;;;23.90;14.07;;;;;;;;;;10356210;28;20215;-80
2022/03/15 01:21:46;;;;;;;30.58;15.27;;;;;;;;;;10348206;28;20612;-80
2022/03/15 01:26:47;;;;;;;26.00;14.63;;;;;;;;;;10385649;28;20286;-80
2022/03/15 01:31:49;;;;;;;29.98;16.27;;;;;;;;;;10352238;28;20220;-79
2022/03/15 01:36:50;;;;;;;40.97;18.45;;;;;;;;;;10349970;28;20205;-82
2022/03/15 01:41:52;;;;;;;28.65;15.73;;;;;;;;;;10355276;28;20228;-81
2022/03/15 01:46:53;;;;;;;31.25;15.75;;;;;;;;;;10386950;28;20601;-80
2022/03/15 01:51:56;;;;;;;30.67;16.13;;;;;;;;;;10351614;28;20247;-81
2022/03/15 01:56:57;;;;;;;30.90;16.38;;;;;;;;;;10387007;28;20212;-83
2022/03/15 02:01:58;;;;;;;27.00;14.95;;;;;;;;;;10387528;28;20215;-81
2022/03/15 02:07:02;;;;;;;28.88;16.25;;;;;;;;;;10355206;28;21357;-83
2022/03/15 02:12:04;;;;;;;32.25;16.42;;;;;;;;;;10389708;28;20197;-80
2022/03/15 02:17:06;;;;;;;28.90;15.38;;;;;;;;;;10356746;28;20684;-82
2022/03/15 02:22:09;;;;;;;37.70;19.48;;;;;;;;;;10358341;28;20691;-83
2022/03/15 02:27:10;;;;;;;37.53;17.33;;;;;;;;;;10359436;28;20225;-83
2022/03/15 02:32:11;;;;;;;38.67;19.05;;;;;;;;;;10358507;28;20205;-82
2022/03/15 02:37:12;;;;;;;44.85;19.92;;;;;;;;;;10357988;28;20231;-83
2022/03/15 02:42:13;;;;;;;40.47;17.88;;;;;;;;;;10359955;28;20315;-83
2022/03/15 02:47:14;;;;;;;40.42;17.75;;;;;;;;;;10361598;28;20307;-83
2022/03/15 02:52:15;;;;;;;38.88;18.50;;;;;;;;;;10360894;28;20283;-82
2022/03/15 02:57:18;;;;;;;55.22;23.02;;;;;;;;;;10360421;28;20203;-83
2022/03/15 03:02:20;;;;;;;52.28;22.23;;;;;;;;;;10353624;28;20221;-82
2022/03/15 03:07:21;;;;;;;48.97;21.42;;;;;;;;;;10358193;28;20228;-82
2022/03/15 03:12:24;;;;;;;38.53;19.40;;;;;;;;;;10359049;28;20205;-82
2022/03/15 03:17:26;;;;;;;39.80;18.20;;;;;;;;;;10358936;28;20236;-83
2022/03/15 03:22:27;;;;;;;31.70;17.77;;;;;;;;;;10355872;28;20220;-83
2022/03/15 03:27:28;;;;;;;40.28;18.35;;;;;;;;;;10353197;28;20866;-82
2022/03/15 03:32:29;;;;;;;47.15;19.92;;;;;;;;;;10353977;28;20251;-83
2022/03/15 03:37:31;;;;;;;39.50;19.38;;;;;;;;;;10357141;28;20213;-82
2022/03/15 03:42:32;;;;;;;36.38;18.08;;;;;;;;;;10355711;28;20717;-82
2022/03/15 03:47:34;;;;;;;40.40;19.05;;;;;;;;;;10383507;28;20725;-81
2022/03/15 03:52:35;;;;;;;36.17;18.55;;;;;;;;;;10350625;28;20220;-81
2022/03/15 03:57:37;;;;;;;35.97;17.40;;;;;;;;;;10354902;28;20204;-81
2022/03/15 04:02:38;;;;;;;42.25;18.45;;;;;;;;;;10353919;28;21045;-81
2022/03/15 04:07:40;;;;;;;34.95;17.60;;;;;;;;;;10354756;28;20489;-82
2022/03/15 04:12:43;;;;;;;32.92;17.73;;;;;;;;;;10352867;28;21097;-82
2022/03/15 04:17:44;;;;;;;35.58;17.10;;;;;;;;;;10346991;28;20279;-81
2022/03/15 04:22:45;;;;;;;33.03;17.98;;;;;;;;;;10347733;28;20211;-81
2022/03/15 04:27:46;;;;;;;31.25;16.35;;;;;;;;;;10349263;28;20207;-81
2022/03/15 04:32:47;;;;;;;30.08;16.05;;;;;;;;;;10345724;28;20214;-80
2022/03/15 04:37:50;;;;;;;35.05;17.75;;;;;;;;;;10355349;28;20767;-76
2022/03/15 04:42:54;;;;;;;33.72;17.17;;;;;;;;;;10357553;28;20221;-81
2022/03/15 04:47:55;;;;;;;35.67;18.30;;;;;;;;;;10356976;28;20205;-80
2022/03/15 04:52:56;;;;;;;39.40;18.42;;;;;;;;;;10357395;28;20205;-81
2022/03/15 04:57:57;;;;;;;34.90;17.95;;;;;;;;;;10363124;28;20215;-81
2022/03/15 05:02:59;;;;;;;33.80;17.33;;;;;;;;;;10357290;28;20229;-82
2022/03/15 05:08:00;;;;;;;36.20;17.90;;;;;;;;;;10355907;28;20779;-81
2022/03/15 05:13:01;;;;;;;35.10;16.77;;;;;;;;;;10350450;28;20196;-81
2022/03/15 05:18:02;;;;;;;37.10;16.67;;;;;;;;;;10355902;28;20282;-80
2022/03/15 05:23:03;;;;;;;31.80;16.67;;;;;;;;;;10356058;28;20216;-81
2022/03/15 05:28:08;;;;;;;35.92;17.20;;;;;;;;;;10359096;28;20640;-81
2022/03/15 05:33:09;;;;;;;37.88;17.55;;;;;;;;;;10352245;28;20219;-81
2022/03/15 05:38:16;;;;;;;32.60;17.05;;;;;;;;;;10354801;28;20291;-80
2022/03/15 05:43:19;;;;;;;34.63;16.50;;;;;;;;;;10358678;28;20233;-82
2022/03/15 05:48:21;;;;;;;33.80;17.77;;;;;;;;;;10357497;28;20209;-80
2022/03/15 05:53:22;;;;;;;38.20;17.17;;;;;;;;;;10360562;28;20205;-80
2022/03/15 05:58:24;;;;;;;36.45;18.10;;;;;;;;;;10357625;28;20208;-81
2022/03/15 06:03:26;;;;;;;40.17;19.23;;;;;;;;;;10355242;28;20565;-80
2022/03/15 06:08:27;;;;;;;44.45;19.63;;;;;;;;;;10355293;28;20258;-80
2022/03/15 06:13:28;;;;;;;36.38;17.35;;;;;;;;;;10350395;28;20230;-80
2022/03/15 06:18:29;;;;;;;36.63;18.08;;;;;;;;;;10351859;28;20212;-80
2022/03/15 06:23:31;;;;;;;35.90;18.38;;;;;;;;;;10353020;28;20846;-79
2022/03/15 06:28:32;;;;;;;38.45;19.52;;;;;;;;;;10349707;28;20208;-79
2022/03/15 06:33:33;;;;;;;50.63;20.95;;;;;;;;;;10345980;28;20227;-79
2022/03/15 06:38:34;;;;;;;44.80;20.83;;;;;;;;;;10348000;28;20232;-78
2022/03/15 06:43:35;;;;;;;44.08;21.23;;;;;;;;;;10343654;28;20205;-79
2022/03/15 06:48:36;;;;;;;47.88;22.60;;;;;;;;;;10340574;28;20199;-79
2022/03/15 06:53:37;;;;;;;45.38;22.83;;;;;;;;;;10338669;28;20878;-78
2022/03/15 06:58:39;;;;;;;60.83;24.80;;;;;;;;;;10338998;28;20200;-78
2022/03/15 07:03:40;;;;;;;44.78;22.58;;;;;;;;;;10334194;28;20232;-77
2022/03/15 07:08:42;;;;;;;54.47;23.27;;;;;;;;;;10334356;28;20695;-79
2022/03/15 07:13:44;;;;;;;46.22;22.77;;;;;;;;;;10331950;28;20212;-78
2022/03/15 07:18:47;;;;;;;46.55;23.00;;;;;;;;;;10341144;28;20211;-77
2022/03/15 07:23:48;;;;;;;45.90;22.48;;;;;;;;;;10339060;28;20204;-75
2022/03/15 07:28:49;;;;;;;50.97;22.80;;;;;;;;;;10342852;28;20204;-76
2022/03/15 07:33:50;;;;;;;52.88;24.75;;;;;;;;;;10331565;28;20225;-77
2022/03/15 07:38:52;;;;;;;52.75;25.05;;;;;;;;;;10342793;28;20251;-78
2022/03/15 07:43:53;;;;;;;52.03;24.50;;;;;;;;;;10338742;28;20267;-77
2022/03/15 07:48:54;;;;;;;47.33;23.20;;;;;;;;;;10339219;28;20291;-77
2022/03/15 07:53:55;;;;;;;41.90;22.30;;;;;;;;;;10339517;28;20719;-79
2022/03/15 07:58:56;;;;;;;45.75;23.73;;;;;;;;;;10339092;28;20279;-78
2022/03/15 08:03:57;;;;;;;39.28;22.33;;;;;;;;;;10343077;28;20212;-80
2022/03/15 08:08:59;;;;;;;39.85;22.27;;;;;;;;;;10339017;28;20282;-79
2022/03/15 08:14:00;;;;;;;37.42;22.38;;;;;;;;;;10340667;28;20214;-80
2022/03/15 08:19:01;;;;;;;38.55;21.45;;;;;;;;;;10339285;28;20248;-79
2022/03/15 08:24:02;;;;;;;39.90;21.65;;;;;;;;;;10341233;28;20208;-81
2022/03/15 08:29:03;;;;;;;37.22;20.88;;;;;;;;;;10340932;28;20211;-78
2022/03/15 08:34:04;;;;;;;32.10;19.60;;;;;;;;;;10339257;28;20220;-80
2022/03/15 08:39:05;;;;;;;32.88;19.77;;;;;;;;;;10339405;28;20271;-80
2022/03/15 08:44:06;;;;;;;36.03;20.67;;;;;;;;;;10339954;28;20867;-79
2022/03/15 08:49:08;;;;;;;33.83;19.85;;;;;;;;;;10340578;28;20196;-80
2022/03/15 08:54:09;;;;;;;38.65;20.35;;;;;;;;;;10342559;28;20222;-80
2022/03/15 08:59:15;;;;;;;33.10;19.80;;;;;;;;;;10344399;28;20207;-81
2022/03/15 09:04:16;;;;;;;32.05;20.45;;;;;;;;;;10342113;28;20221;-83
2022/03/15 09:09:20;;;;;;;34.42;20.48;;;;;;;;;;10353167;28;20215;-85
2022/03/15 09:14:21;;;;;;;32.85;20.25;;;;;;;;;;10355402;28;20323;-87
2022/03/15 09:19:22;;;;;;;31.92;19.98;;;;;;;;;;10351403;28;20212;-83
2022/03/15 09:24:23;;;;;;;31.65;18.40;;;;;;;;;;10360642;28;20312;-82
2022/03/15 09:29:24;;;;;;;28.73;19.30;;;;;;;;;;10361741;28;20764;-81
2022/03/15 09:34:27;;;;;;;27.35;18.70;;;;;;;;;;10350263;28;20216;-81
2022/03/15 09:39:28;;;;;;;26.10;18.23;;;;;;;;;;10350644;28;20240;-80
2022/03/15 09:44:30;;;;;;;25.08;16.95;;;;;;;;;;10344695;28;20212;-83
2022/03/15 09:49:31;;;;;;;22.42;15.90;;;;;;;;;;10346055;28;20224;-83
2022/03/15 09:54:32;;;;;;;26.92;17.23;;;;;;;;;;10345169;28;20204;-85
2022/03/15 09:59:34;;;;;;;28.42;17.92;;;;;;;;;;10356010;28;20275;-83
2022/03/15 10:04:36;;;;;;;30.35;18.90;;;;;;;;;;10365545;28;20228;-84
2022/03/15 10:09:37;;;;;;;26.75;17.27;;;;;;;;;;10357406;28;20213;-84
2022/03/15 10:14:45;;;;;;;31.33;18.48;;;;;;;;;;10363337;28;20200;-84
2022/03/15 10:19:53;;;;;;;25.33;16.83;;;;;;;;;;10357758;28;20291;-85
2022/03/15 10:24:54;;;;;;;28.15;17.20;;;;;;;;;;10362246;28;20258;-85
2022/03/15 10:29:56;;;;;;;23.00;16.10;;;;;;;;;;10360791;28;20204;-87
2022/03/15 10:35:08;;;;;;;21.15;16.95;;;;;;;;;;10361205;28;20208;-87
2022/03/15 10:40:09;;;;;;;22.75;16.38;;;;;;;;;;10367374;28;20232;-86
2022/03/15 10:45:21;;;;;;;22.83;16.85;;;;;;;;;;10362169;28;20213;-86
2022/03/15 10:50:23;;;;;;;24.20;16.98;;;;;;;;;;10365666;28;20220;-85
2022/03/15 10:55:28;;;;;;;26.83;17.95;;;;;;;;;;10360957;28;20259;-84
2022/03/15 11:00:31;;;;;;;21.50;16.33;;;;;;;;;;10357156;28;20231;-85
2022/03/15 11:05:33;;;;;;;24.88;15.52;;;;;;;;;;10357254;28;20223;-85
2022/03/15 11:10:35;;;;;;;25.20;16.60;;;;;;;;;;10356994;28;20200;-85
2022/03/15 11:15:40;;;;;;;24.30;15.93;;;;;;;;;;10355768;28;20211;-82
2022/03/15 11:20:43;;;;;;;28.17;17.42;;;;;;;;;;10357275;28;20204;-83
2022/03/15 11:25:48;;;;;;;25.20;16.25;;;;;;;;;;10353134;28;20272;-79
2022/03/15 11:30:51;;;;;;;26.75;16.90;;;;;;;;;;10344706;28;20220;-80
2022/03/15 11:35:52;;;;;;;23.85;16.15;;;;;;;;;;10351599;28;20271;-83
2022/03/15 11:40:55;;;;;;;28.30;17.02;;;;;;;;;;10351087;28;20232;-82
2022/03/15 11:45:56;;;;;;;28.50;17.42;;;;;;;;;;10347495;28;20216;-80
2022/03/15 11:51:16;;;;;;;25.08;16.80;;;;;;;;;;10348599;28;20705;-74
2022/03/15 11:56:30;;;;;;;27.38;17.40;;;;;;;;;;10352057;28;20206;-81
2022/03/15 12:01:42;;;;;;;24.33;16.98;;;;;;;;;;10352440;28;20220;-80
2022/03/15 12:07:11;;;;;;;25.67;17.02;;;;;;;;;;10347252;28;20270;-82
2022/03/15 12:12:15;;;;;;;28.17;18.30;;;;;;;;;;10345140;28;20247;-79
2022/03/15 12:17:17;;;;;;;24.75;17.40;;;;;;;;;;10338718;28;20297;-79
2022/03/15 12:22:34;;;;;;;25.83;16.92;;;;;;;;;;10343360;28;20211;-80
2022/03/15 12:27:42;;;;;;;26.00;17.08;;;;;;;;;;10345420;28;20218;-79
2022/03/15 12:32:56;;;;;;;26.73;16.33;;;;;;;;;;10347721;28;20299;-80
2022/03/15 12:38:06;;;;;;;27.70;16.55;;;;;;;;;;10341926;28;20220;-79
2022/03/15 12:43:08;;;;;;;22.73;15.52;;;;;;;;;;10346531;28;20220;-79
2022/03/15 12:48:09;;;;;;;23.45;15.60;;;;;;;;;;10347130;28;20195;-79
2022/03/15 12:53:15;;;;;;;24.60;16.95;;;;;;;;;;10349149;28;20709;-80
2022/03/15 12:58:16;;;;;;;25.55;16.00;;;;;;;;;;10342435;28;20291;-79
2022/03/15 13:03:19;;;;;;;21.25;15.63;;;;;;;;;;10349302;28;20216;-80
2022/03/15 13:08:20;;;;;;;24.95;14.93;;;;;;;;;;10350468;28;20201;-79
2022/03/15 13:13:24;;;;;;;22.50;15.85;;;;;;;;;;10351774;28;20200;-80
2022/03/15 13:18:25;;;;;;;19.52;15.05;;;;;;;;;;10356369;28;20293;-79
2022/03/15 13:23:37;;;;;;;23.08;14.65;;;;;;;;;;10354021;28;20322;-77
2022/03/15 13:28:42;;;;;;;20.30;14.23;;;;;;;;;;10351784;28;20215;-77
2022/03/15 13:33:44;;;;;;;22.55;15.05;;;;;;;;;;10348135;28;20269;-78
2022/03/15 13:38:46;;;;;;;19.63;13.57;;;;;;;;;;10348026;28;20291;-78
2022/03/15 13:43:48;;;;;;;18.40;13.23;;;;;;;;;;10346321;28;20259;-78
2022/03/15 13:48:50;;;;;;;26.15;15.93;;;;;;;;;;10349751;28;20889;-80
2022/03/15 13:53:51;;;;;;;22.10;16.05;;;;;;;;;;10349596;28;20223;-79
2022/03/15 13:59:01;;;;;;;24.88;14.05;;;;;;;;;;10351943;28;20636;-78
2022/03/15 14:04:12;;;;;;;18.10;13.10;;;;;;;;;;10346824;28;20248;-78
2022/03/15 14:09:24;;;;;;;23.38;15.00;;;;;;;;;;10347852;28;20219;-78
2022/03/15 14:14:25;;;;;;;22.55;14.02;;;;;;;;;;10353451;28;20262;-78
2022/03/15 14:19:26;;;;;;;21.33;13.88;;;;;;;;;;10353332;28;20204;-80
2022/03/15 14:24:27;;;;;;;16.42;12.10;;;;;;;;;;10351011;28;20219;-79
2022/03/15 14:29:30;;;;;;;19.25;12.27;;;;;;;;;;10350800;28;20197;-79
2022/03/15 14:34:32;;;;;;;20.00;14.18;;;;;;;;;;10346153;28;20808;-79
2022/03/15 14:39:37;;;;;;;22.83;14.07;;;;;;;;;;10346364;28;20743;-79
2022/03/15 14:44:39;;;;;;;20.08;14.32;;;;;;;;;;10339848;28;20236;-80
2022/03/15 14:49:41;;;;;;;21.95;15.07;;;;;;;;;;10349864;28;20702;-78
2022/03/15 14:54:44;;;;;;;27.08;16.75;;;;;;;;;;10351536;28;20309;-78
2022/03/15 14:59:46;;;;;;;25.73;16.25;;;;;;;;;;10344799;28;20323;-78
2022/03/15 15:04:49;;;;;;;27.83;14.82;;;;;;;;;;10343818;28;20719;-79
2022/03/15 15:09:51;;;;;;;29.38;15.32;;;;;;;;;;10342134;28;20300;-79
2022/03/15 15:14:53;;;;;;;21.40;14.52;;;;;;;;;;10344887;28;20216;-79
2022/03/15 15:19:54;;;;;;;20.35;14.80;;;;;;;;;;10339893;28;20212;-78
2022/03/15 15:24:58;;;;;;;21.30;14.88;;;;;;;;;;10344701;28;20715;-79
2022/03/15 15:30:00;;;;;;;22.73;15.60;;;;;;;;;;10341081;28;20200;-79
2022/03/15 15:35:01;;;;;;;23.08;14.75;;;;;;;;;;10341713;28;20256;-78
2022/03/15 15:40:03;;;;;;;26.85;16.20;;;;;;;;;;10343984;28;20299;-78
2022/03/15 15:45:06;;;;;;;24.50;16.75;;;;;;;;;;10341578;28;20248;-78
2022/03/15 15:50:12;;;;;;;22.33;16.83;;;;;;;;;;10349651;28;20358;-78
2022/03/15 15:55:14;;;;;;;23.52;16.73;;;;;;;;;;10341966;28;20204;-78
2022/03/15 16:00:17;;;;;;;30.95;17.35;;;;;;;;;;10342161;28;20208;-78
2022/03/15 16:05:22;;;;;;;28.48;17.52;;;;;;;;;;10345165;28;20232;-78
2022/03/15 16:10:23;;;;;;;24.17;15.43;;;;;;;;;;10340303;28;20201;-80
2022/03/15 16:15:25;;;;;;;25.48;16.95;;;;;;;;;;10341023;28;20205;-79
2022/03/15 16:20:27;;;;;;;22.33;15.57;;;;;;;;;;10345327;28;20288;-78
2022/03/15 16:25:32;;;;;;;23.38;16.60;;;;;;;;;;10347772;28;20220;-80
2022/03/15 16:30:35;;;;;;;26.10;16.42;;;;;;;;;;10337520;28;20270;-78
2022/03/15 16:35:36;;;;;;;24.30;16.33;;;;;;;;;;10347604;28;20203;-79
2022/03/15 16:40:38;;;;;;;27.58;17.00;;;;;;;;;;10338875;28;20313;-76
2022/03/15 16:45:40;;;;;;;27.00;18.08;;;;;;;;;;10338152;28;20204;-77
2022/03/15 16:50:41;;;;;;;29.55;18.33;;;;;;;;;;10339643;28;20685;-77
2022/03/15 16:55:50;;;;;;;40.78;24.58;;;;;;;;;;10333959;28;20200;-77
2022/03/15 17:00:51;;;;;;;47.83;29.42;;;;;;;;;;10341550;28;20254;-77
2022/03/15 17:05:52;;;;;;;36.15;21.35;;;;;;;;;;10333331;28;20215;-78
2022/03/15 17:10:54;;;;;;;31.20;19.73;;;;;;;;;;10344259;28;20197;-78
2022/03/15 17:15:57;;;;;;;32.30;21.05;;;;;;;;;;10342576;28;20215;-78
2022/03/15 17:20:59;;;;;;;38.60;23.30;;;;;;;;;;10347348;28;20191;-78
2022/03/15 17:26:03;;;;;;;32.67;22.02;;;;;;;;;;10346693;28;20209;-78
2022/03/15 17:31:05;;;;;;;33.53;21.50;;;;;;;;;;10347209;28;20235;-79
2022/03/15 17:36:10;;;;;;;38.90;22.35;;;;;;;;;;10344196;28;20197;-78
2022/03/15 17:41:13;;;;;;;36.08;21.35;;;;;;;;;;10342713;28;20224;-77
2022/03/15 17:46:18;;;;;;;37.35;22.83;;;;;;;;;;10346450;28;20251;-78
2022/03/15 17:51:22;;;;;;;62.47;36.63;;;;;;;;;;10347488;28;20233;-77
2022/03/15 17:56:33;;;;;;;53.58;31.38;;;;;;;;;;10346352;28;20624;-77
2022/03/15 18:01:37;;;;;;;54.20;31.05;;;;;;;;;;10344022;28;20232;-77
2022/03/15 18:06:42;;;;;;;52.50;30.33;;;;;;;;;;10343570;28;20570;-76
2022/03/15 18:11:44;;;;;;;44.78;25.42;;;;;;;;;;10341644;28;20200;-76
2022/03/15 18:16:45;;;;;;;40.47;25.00;;;;;;;;;;10342554;28;20685;-75
2022/03/15 18:21:50;;;;;;;58.22;26.27;;;;;;;;;;10336047;28;20830;-77
2022/03/15 18:26:52;;;;;;;40.50;25.45;;;;;;;;;;10340390;28;20203;-76
2022/03/15 18:31:54;;;;;;;40.88;24.58;;;;;;;;;;10345528;28;20217;-77
2022/03/15 18:36:55;;;;;;;42.00;24.85;;;;;;;;;;10343069;28;21170;-77
2022/03/15 18:42:00;;;;;;;40.00;25.08;;;;;;;;;;10338863;28;20576;-75
2022/03/15 18:47:03;;;;;;;37.97;23.20;;;;;;;;;;10338693;28;20212;-74
2022/03/15 18:52:05;;;;;;;46.78;25.08;;;;;;;;;;10342914;28;20215;-76
2022/03/15 18:57:06;;;;;;;41.25;24.85;;;;;;;;;;10341113;28;20275;-75
2022/03/15 19:02:07;;;;;;;43.78;25.98;;;;;;;;;;10343516;28;20286;-78
2022/03/15 19:07:09;;;;;;;47.28;26.42;;;;;;;;;;10339818;28;20230;-76
2022/03/15 19:12:10;;;;;;;39.47;24.45;;;;;;;;;;10331594;28;20999;-77
2022/03/15 19:17:12;;;;;;;40.95;23.20;;;;;;;;;;10342966;28;21368;-80
2022/03/15 19:22:13;;;;;;;44.10;25.48;;;;;;;;;;10340927;28;20237;-80
2022/03/15 19:27:14;;;;;;;42.47;26.25;;;;;;;;;;10342328;28;20212;-78
2022/03/15 19:32:19;;;;;;;46.33;27.38;;;;;;;;;;10345093;28;20243;-78
2022/03/15 19:37:20;;;;;;;48.35;26.95;;;;;;;;;;10341893;28;20234;-77
2022/03/15 19:42:24;;;;;;;45.42;26.90;;;;;;;;;;10344116;28;20243;-77
2022/03/15 19:47:25;;;;;;;53.92;30.17;;;;;;;;;;10340406;28;20243;-79
2022/03/15 19:52:26;;;;;;;47.92;25.20;;;;;;;;;;10340580;28;20312;-78
2022/03/15 19:57:29;;;;;;;39.42;22.55;;;;;;;;;;10341178;28;20209;-78
2022/03/15 20:02:33;;;;;;;36.67;20.88;;;;;;;;;;10340503;28;20232;-78
2022/03/15 20:07:36;;;;;;;42.92;22.13;;;;;;;;;;10341186;28;20228;-78
2022/03/15 20:12:38;;;;;;;43.95;24.27;;;;;;;;;;10343922;28;20200;-79
2022/03/15 20:17:43;;;;;;;42.40;23.70;;;;;;;;;;10348713;28;20208;-79
2022/03/15 20:22:47;;;;;;;44.38;24.70;;;;;;;;;;10343902;28;20212;-77
2022/03/15 20:27:48;;;;;;;48.15;24.33;;;;;;;;;;10341323;28;20213;-79
2022/03/15 20:32:49;;;;;;;49.42;24.83;;;;;;;;;;10340192;28;20231;-81
2022/03/15 20:37:50;;;;;;;46.72;24.15;;;;;;;;;;10343002;28;20211;-79
2022/03/15 20:48:12;;;;;;;49.40;23.42;;;;;;;;;;10332834;28;20307;-80
2022/03/15 20:53:17;;;;;;;44.47;24.50;;;;;;;;;;10339110;28;20997;-79
2022/03/15 20:58:18;;;;;;;41.72;23.10;;;;;;;;;;10339419;28;20235;-78
2022/03/15 21:03:23;;;;;;;37.10;21.13;;;;;;;;;;10341008;28;20696;-79
2022/03/15 21:08:25;;;;;;;47.13;22.95;;;;;;;;;;10344752;28;20568;-78
2022/03/15 21:13:31;;;;;;;41.03;21.63;;;;;;;;;;10339572;28;20201;-79
2022/03/15 21:18:36;;;;;;;40.20;21.33;;;;;;;;;;10344195;28;20201;-79
2022/03/15 21:23:38;;;;;;;40.00;20.33;;;;;;;;;;10350814;28;20684;-79
2022/03/15 21:28:40;;;;;;;43.80;21.60;;;;;;;;;;10344630;28;20703;-78
2022/03/15 21:33:42;;;;;;;43.20;22.45;;;;;;;;;;10347906;28;20311;-78
2022/03/15 21:38:44;;;;;;;38.92;20.60;;;;;;;;;;10348037;28;20209;-78
2022/03/15 21:43:45;;;;;;;41.08;21.13;;;;;;;;;;10346579;28;20206;-79
2022/03/15 21:48:53;;;;;;;38.17;21.05;;;;;;;;;;10353925;28;20259;-77
2022/03/15 21:53:54;;;;;;;36.53;20.30;;;;;;;;;;10349855;28;20258;-78
2022/03/15 21:58:57;;;;;;;40.72;20.33;;;;;;;;;;10344655;28;20215;-70
2022/03/15 22:03:58;;;;;;;39.50;19.90;;;;;;;;;;10348250;28;20228;-79
2022/03/15 22:08:59;;;;;;;34.45;19.33;;;;;;;;;;10347909;28;20728;-79
2022/03/15 22:14:00;;;;;;;33.10;18.15;;;;;;;;;;10344822;28;20292;-80
2022/03/15 22:19:01;;;;;;;36.95;19.40;;;;;;;;;;10349089;28;20208;-79
2022/03/15 22:24:03;;;;;;;36.70;19.23;;;;;;;;;;10347223;28;20220;-80
2022/03/15 22:29:06;;;;;;;36.85;18.65;;;;;;;;;;10344893;28;20609;-79
2022/03/15 23:16:31;;;;;;;36.15;16.35;;;;;;;;;;10347468;28;20200;-81
2022/03/15 23:32:12;;;;;;;32.90;17.10;;;;;;;;;;10350571;28;20311;-80
2022/03/15 23:37:14;;;;;;;31.50;16.27;;;;;;;;;;10352033;28;20208;-80
2022/03/15 23:42:15;;;;;;;32.85;16.33;;;;;;;;;;10346398;28;20228;-79
2022/03/15 23:47:17;;;;;;;37.08;17.42;;;;;;;;;;10349349;28;20699;-79
2022/03/15 23:52:18;;;;;;;37.13;17.75;;;;;;;;;;10347244;28;20292;-79
2022/03/15 23:57:19;;;;;;;33.70;17.25;;;;;;;;;;10347731;28;20206;-80
